Target — 9HA2149 — position and weather

sailwx.info

Track history (hours):
 
Tides and Currents Weather Stations Pressure Air Temp Water Temp Dewpoint Dewpoint Depression Visibility Wind Speed Wind Dir Waves Ship Positions

Target

Last reported at 2014-Sep-19 05:11 UTC. Time now 2014-Sep-19 11:49 UTC.
Position N 54°46' W 000°52'.

Length 250 m; draft 11.5 m.

Type: Tanker. MMSI: 248057000.

Date/timePositionNaut miles runAvg speedWind from/ knotsBaromVisibWave heightAir tempDewpointWater temp
2014-Sep-19 05:11N 54°46' W 000°52'56 7.4
2014-Sep-18 21:33N 55°09' E 000°37'1212.2
2014-Sep-18 20:34N 55°04' E 000°18'2411.7
2014-Sep-18 18:33N 54°55' W 000°19'1211.7
2014-Sep-18 17:33N 54°49' W 000°37'1211.8
2014-Sep-18 16:32N 54°45' W 000°57'1010.2
2014-Sep-18 15:32N 54°38' W 001°09'1 0.7
2014-Sep-18 14:32N 54°37' W 001°10'0 0.0
2014-Sep-18 13:29N 54°37' W 001°10'0 0.0
2014-Sep-18 12:32N 54°37' W 001°10'0 0.0
2014-Sep-18 11:05N 54°37' W 001°10'0 0.0
2014-Sep-18 10:08N 54°37' W 001°10'0 0.0
2014-Sep-18 09:17N 54°37' W 001°10'0 0.0
2014-Sep-18 07:26N 54°37' W 001°10'0 0.0
2014-Sep-18 06:23N 54°37' W 001°10'0 0.0
2014-Sep-17 15:25N 54°37' W 001°10'4 4.8
2014-Sep-17 14:33N 54°41' W 001°07'7 7.2
2014-Sep-17 13:33N 54°43' W 000°55'1311.8
2014-Sep-17 12:29N 54°43' W 000°33'1112.1
2014-Sep-17 11:33N 54°43' W 000°13'1212.0
2014-Sep-17 10:33N 54°43' E 000°07'1312.2
2014-Sep-17 09:31N 54°43' E 000°29'1511.3
2014-Sep-17 08:13N 54°36' E 000°52'13910.7
2014-Sep-16 19:07N 52°33' E 002°42'713.2
2014-Sep-16 18:33N 52°25' E 002°42'1812.2
2014-Sep-16 17:05N 52°09' E 002°55'712.4
2014-Sep-16 16:33N 52°05' E 003°03'1212.2
2014-Sep-16 15:33N 52°03' E 003°23'1110.6
2014-Sep-16 14:33N 52°09' E 003°38'1 0.8
2014-Sep-16 13:32N 52°10' E 003°37'0 0.0
2014-Sep-16 12:32N 52°10' E 003°37'0 0.0
2014-Sep-16 11:32N 52°10' E 003°37'0 0.1
2014-Sep-16 10:32N 52°10' E 003°37'0 0.2
2014-Sep-16 09:32N 52°10' E 003°37'0 0.0
2014-Sep-16 08:33N 52°10' E 003°37'0 0.0
2014-Sep-16 07:32N 52°10' E 003°37'0 0.0
2014-Sep-16 06:32N 52°10' E 003°37'0 0.1
2014-Sep-16 05:29N 52°10' E 003°37'0 0.2
2014-Sep-16 04:32N 52°10' E 003°37'0 0.0
2014-Sep-16 02:32N 52°10' E 003°37'0 0.0
2014-Sep-16 01:32N 52°10' E 003°37'0 0.0
2014-Sep-15 23:08N 52°10' E 003°37'0 0.0
2014-Sep-15 22:26N 52°10' E 003°37'0 0.2
2014-Sep-15 21:32N 52°10' E 003°37'0 0.1
2014-Sep-15 20:32N 52°10' E 003°37'0 0.0
2014-Sep-15 19:30N 52°10' E 003°37'0 0.0
2014-Sep-15 18:27N 52°10' E 003°37'0 0.1
2014-Sep-15 17:27N 52°10' E 003°37'0 0.2
2014-Sep-15 16:23N 52°10' E 003°37'0 0.0
2014-Sep-15 15:29N 52°10' E 003°37'0 0.0
2014-Sep-15 14:29N 52°10' E 003°37'0 0.0
2014-Sep-15 13:23N 52°10' E 003°37'0 0.0
2014-Sep-15 12:32N 52°10' E 003°37'0 0.0
2014-Sep-15 11:32N 52°10' E 003°37'0 0.0
2014-Sep-15 10:32N 52°10' E 003°37'0 0.1
2014-Sep-15 09:26N 52°10' E 003°37'0 0.2
2014-Sep-15 08:32N 52°10' E 003°37'0 0.0
2014-Sep-15 06:26N 52°10' E 003°37'0 0.1
2014-Sep-15 04:26N 52°10' E 003°37'0 0.1
2014-Sep-15 03:32N 52°10' E 003°37'0 0.0
2014-Sep-15 00:32N 52°10' E 003°37'0 0.0
2014-Sep-14 23:32N 52°10' E 003°37'0 0.0
2014-Sep-14 22:20N 52°10' E 003°37'0 0.0
2014-Sep-14 21:26N 52°10' E 003°37'0 0.0
2014-Sep-14 13:20N 52°10' E 003°37'0 0.0
2014-Sep-14 12:20N 52°10' E 003°37'0 0.0
2014-Sep-14 11:20N 52°10' E 003°37'0 0.0
2014-Sep-14 09:32N 52°10' E 003°37'0 0.1
2014-Sep-14 06:32N 52°10' E 003°37'0 0.1
2014-Sep-14 02:26N 52°10' E 003°37'0 0.0
2014-Sep-14 01:26N 52°10' E 003°37'0 0.0
2014-Sep-13 21:32N 52°10' E 003°37'0 0.0
2014-Sep-13 20:26N 52°10' E 003°37'0 0.0
2014-Sep-13 14:32N 52°09' E 003°37'0 0.0
2014-Sep-13 06:29N 52°10' E 003°37'0 0.0
2014-Sep-13 04:32N 52°10' E 003°37'0 0.2
2014-Sep-13 03:32N 52°10' E 003°37'0 0.2
2014-Sep-13 02:32N 52°10' E 003°37'0 0.0
2014-Sep-13 01:29N 52°10' E 003°37'0 0.0
2014-Sep-13 00:29N 52°10' E 003°37'0 0.0
2014-Sep-12 23:32N 52°10' E 003°37'0 0.0
2014-Sep-12 22:32N 52°10' E 003°37'0 0.0
2014-Sep-12 21:32N 52°10' E 003°37'0 0.0
2014-Sep-12 20:20N 52°10' E 003°37'0 0.1
2014-Sep-12 18:11N 52°10' E 003°37'0 0.1
2014-Sep-12 17:29N 52°10' E 003°37'0 0.1
2014-Sep-12 13:20N 52°10' E 003°37'0 0.0
2014-Sep-12 12:32N 52°10' E 003°37'0 0.0
2014-Sep-12 11:32N 52°10' E 003°37'0 0.0
2014-Sep-12 08:17N 52°10' E 003°37'0 0.1
2014-Sep-12 06:23N 52°10' E 003°37'0 0.1
2014-Sep-12 05:29N 52°10' E 003°37'0 0.0
2014-Sep-12 04:29N 52°10' E 003°37'0 0.1
2014-Sep-12 03:32N 52°10' E 003°37'0 0.1
2014-Sep-12 01:20N 52°10' E 003°37'0 0.0
2014-Sep-12 00:29N 52°10' E 003°37'0 0.0
2014-Sep-11 23:32N 52°10' E 003°37'0 0.0
2014-Sep-11 22:29N 52°10' E 003°37'0 0.0
2014-Sep-11 21:32N 52°10' E 003°37'0 0.0
2014-Sep-11 20:26N 52°10' E 003°37'0 0.0
2014-Sep-11 19:08N 52°10' E 003°37'6 1.0
2014-Sep-11 13:22N 52°04' E 003°39'1011.8
2014-Sep-11 12:33N 52°02' E 003°55'1110.6
2014-Sep-11 11:33N 51°57' E 004°10'0 0.5
2014-Sep-11 10:32N 51°56' E 004°10'0 0.0
2014-Sep-11 09:32N 51°56' E 004°10'0 0.0
2014-Sep-11 08:32N 51°56' E 004°10'0 0.0
2014-Sep-11 07:23N 51°56' E 004°10'0 0.0
2014-Sep-11 06:20N 51°56' E 004°10'0 0.0
2014-Sep-11 05:32N 51°56' E 004°10'0 0.0
2014-Sep-11 04:29N 51°56' E 004°10'0 0.0
2014-Sep-11 03:26N 51°56' E 004°10'0 0.0
2014-Sep-11 02:23N 51°56' E 004°10'0 0.0
2014-Sep-11 01:29N 51°56' E 004°10'0 0.0
2014-Sep-11 00:29N 51°56' E 004°10'0 0.0
2014-Sep-10 23:08N 51°56' E 004°10'0 0.0
2014-Sep-10 22:20N 51°56' E 004°10'0 0.0
2014-Sep-10 21:32N 51°56' E 004°10'0 0.0
2014-Sep-10 20:11N 51°56' E 004°10'0 0.0
2014-Sep-10 19:32N 51°56' E 004°10'0 0.0
2014-Sep-10 18:29N 51°56' E 004°10'0 0.0
2014-Sep-10 17:17N 51°56' E 004°10'0 0.0
2014-Sep-10 16:32N 51°56' E 004°10'0 0.0
2014-Sep-10 15:26N 51°56' E 004°10'0 0.0
2014-Sep-10 13:23N 51°56' E 004°10'0 0.0
2014-Sep-10 12:08N 51°56' E 004°10'0 0.0
2014-Sep-10 11:26N 51°56' E 004°10'0 0.0
2014-Sep-10 10:29N 51°56' E 004°10'0 0.0
2014-Sep-10 09:26N 51°56' E 004°10'0 0.0
2014-Sep-10 08:32N 51°56' E 004°10'0 0.0
2014-Sep-10 07:29N 51°56' E 004°10'0 0.0
2014-Sep-10 05:29N 51°56' E 004°10'1 0.6
2014-Sep-10 04:33N 51°57' E 004°09'0 0.4
2014-Sep-10 03:31N 51°57' E 004°09'0 0.0
2014-Sep-10 02:31N 51°57' E 004°09'0 0.0
2014-Sep-10 01:19N 51°57' E 004°09'0 0.0
2014-Sep-10 00:31N 51°57' E 004°09'0 0.0
2014-Sep-09 23:25N 51°57' E 004°09'0 0.0
2014-Sep-09 22:25N 51°57' E 004°09'0 0.0
2014-Sep-09 21:31N 51°57' E 004°09'0 0.0
2014-Sep-09 19:31N 51°57' E 004°09'0 0.0
2014-Sep-09 18:31N 51°57' E 004°09'0 0.0
2014-Sep-09 17:25N 51°57' E 004°09'0 0.0
2014-Sep-09 16:28N 51°57' E 004°09'0 0.0
2014-Sep-09 15:31N 51°57' E 004°09'0 0.0
2014-Sep-09 14:28N 51°57' E 004°09'0 0.0
2014-Sep-09 13:31N 51°57' E 004°09'0 0.0
2014-Sep-09 12:28N 51°57' E 004°09'0 0.0
2014-Sep-09 11:31N 51°57' E 004°09'0 0.0
2014-Sep-09 10:31N 51°57' E 004°09'0 0.0
2014-Sep-09 09:25N 51°57' E 004°09'0 0.0
2014-Sep-09 08:28N 51°57' E 004°09'0 0.0
2014-Sep-09 07:31N 51°57' E 004°09'0 0.0
2014-Sep-09 06:19N 51°57' E 004°09'0 0.0
2014-Sep-09 05:31N 51°57' E 004°09'  
Track history (hours):
 
Tides and Currents Weather Stations Pressure Air Temp Water Temp Dewpoint Dewpoint Depression Visibility Wind Speed Wind Dir Waves Ship Positions

Target

Last reported at 2014-Sep-19 05:11 UTC. Time now 2014-Sep-19 11:49 UTC.
Position N 54°46' W 000°52'.

Length 250 m; draft 11.5 m.

Type: Tanker. MMSI: 248057000.

Date/timePositionNaut miles runAvg speedWind from/ knotsBaromVisibWave heightAir tempDewpointWater temp
2014-Sep-19 05:11N 54°46' W 000°52'56 7.4
2014-Sep-18 21:33N 55°09' E 000°37'1212.2
2014-Sep-18 20:34N 55°04' E 000°18'2411.7
2014-Sep-18 18:33N 54°55' W 000°19'1211.7
2014-Sep-18 17:33N 54°49' W 000°37'1211.8
2014-Sep-18 16:32N 54°45' W 000°57'1010.2
2014-Sep-18 15:32N 54°38' W 001°09'1 0.7
2014-Sep-18 14:32N 54°37' W 001°10'0 0.0
2014-Sep-18 13:29N 54°37' W 001°10'0 0.0
2014-Sep-18 12:32N 54°37' W 001°10'0 0.0
2014-Sep-18 11:05N 54°37' W 001°10'0 0.0
2014-Sep-18 10:08N 54°37' W 001°10'0 0.0
2014-Sep-18 09:17N 54°37' W 001°10'0 0.0
2014-Sep-18 07:26N 54°37' W 001°10'0 0.0
2014-Sep-18 06:23N 54°37' W 001°10'0 0.0
2014-Sep-17 15:25N 54°37' W 001°10'4 4.8
2014-Sep-17 14:33N 54°41' W 001°07'7 7.2
2014-Sep-17 13:33N 54°43' W 000°55'1311.8
2014-Sep-17 12:29N 54°43' W 000°33'1112.1
2014-Sep-17 11:33N 54°43' W 000°13'1212.0
2014-Sep-17 10:33N 54°43' E 000°07'1312.2
2014-Sep-17 09:31N 54°43' E 000°29'1511.3
2014-Sep-17 08:13N 54°36' E 000°52'13910.7
2014-Sep-16 19:07N 52°33' E 002°42'713.2
2014-Sep-16 18:33N 52°25' E 002°42'1812.2
2014-Sep-16 17:05N 52°09' E 002°55'712.4
2014-Sep-16 16:33N 52°05' E 003°03'1212.2
2014-Sep-16 15:33N 52°03' E 003°23'1110.6
2014-Sep-16 14:33N 52°09' E 003°38'1 0.8
2014-Sep-16 13:32N 52°10' E 003°37'0 0.0
2014-Sep-16 12:32N 52°10' E 003°37'0 0.0
2014-Sep-16 11:32N 52°10' E 003°37'0 0.1
2014-Sep-16 10:32N 52°10' E 003°37'0 0.2
2014-Sep-16 09:32N 52°10' E 003°37'0 0.0
2014-Sep-16 08:33N 52°10' E 003°37'0 0.0
2014-Sep-16 07:32N 52°10' E 003°37'0 0.0
2014-Sep-16 06:32N 52°10' E 003°37'0 0.1
2014-Sep-16 05:29N 52°10' E 003°37'0 0.2
2014-Sep-16 04:32N 52°10' E 003°37'0 0.0
2014-Sep-16 02:32N 52°10' E 003°37'0 0.0
2014-Sep-16 01:32N 52°10' E 003°37'0 0.0
2014-Sep-15 23:08N 52°10' E 003°37'0 0.0
2014-Sep-15 22:26N 52°10' E 003°37'0 0.2
2014-Sep-15 21:32N 52°10' E 003°37'0 0.1
2014-Sep-15 20:32N 52°10' E 003°37'0 0.0
2014-Sep-15 19:30N 52°10' E 003°37'0 0.0
2014-Sep-15 18:27N 52°10' E 003°37'0 0.1
2014-Sep-15 17:27N 52°10' E 003°37'0 0.2
2014-Sep-15 16:23N 52°10' E 003°37'0 0.0
2014-Sep-15 15:29N 52°10' E 003°37'0 0.0
2014-Sep-15 14:29N 52°10' E 003°37'0 0.0
2014-Sep-15 13:23N 52°10' E 003°37'0 0.0
2014-Sep-15 12:32N 52°10' E 003°37'0 0.0
2014-Sep-15 11:32N 52°10' E 003°37'0 0.0
2014-Sep-15 10:32N 52°10' E 003°37'0 0.1
2014-Sep-15 09:26N 52°10' E 003°37'0 0.2
2014-Sep-15 08:32N 52°10' E 003°37'0 0.0
2014-Sep-15 06:26N 52°10' E 003°37'0 0.1
2014-Sep-15 04:26N 52°10' E 003°37'0 0.1
2014-Sep-15 03:32N 52°10' E 003°37'0 0.0
2014-Sep-15 00:32N 52°10' E 003°37'0 0.0
2014-Sep-14 23:32N 52°10' E 003°37'0 0.0
2014-Sep-14 22:20N 52°10' E 003°37'0 0.0
2014-Sep-14 21:26N 52°10' E 003°37'0 0.0
2014-Sep-14 13:20N 52°10' E 003°37'0 0.0
2014-Sep-14 12:20N 52°10' E 003°37'0 0.0
2014-Sep-14 11:20N 52°10' E 003°37'0 0.0
2014-Sep-14 09:32N 52°10' E 003°37'0 0.1
2014-Sep-14 06:32N 52°10' E 003°37'0 0.1
2014-Sep-14 02:26N 52°10' E 003°37'0 0.0
2014-Sep-14 01:26N 52°10' E 003°37'0 0.0
2014-Sep-13 21:32N 52°10' E 003°37'0 0.0
2014-Sep-13 20:26N 52°10' E 003°37'0 0.0
2014-Sep-13 14:32N 52°09' E 003°37'0 0.0
2014-Sep-13 06:29N 52°10' E 003°37'0 0.0
2014-Sep-13 04:32N 52°10' E 003°37'0 0.2
2014-Sep-13 03:32N 52°10' E 003°37'0 0.2
2014-Sep-13 02:32N 52°10' E 003°37'0 0.0
2014-Sep-13 01:29N 52°10' E 003°37'0 0.0
2014-Sep-13 00:29N 52°10' E 003°37'0 0.0
2014-Sep-12 23:32N 52°10' E 003°37'0 0.0
2014-Sep-12 22:32N 52°10' E 003°37'0 0.0
2014-Sep-12 21:32N 52°10' E 003°37'0 0.0
2014-Sep-12 20:20N 52°10' E 003°37'0 0.1
2014-Sep-12 18:11N 52°10' E 003°37'0 0.1
2014-Sep-12 17:29N 52°10' E 003°37'0 0.1
2014-Sep-12 13:20N 52°10' E 003°37'0 0.0
2014-Sep-12 12:32N 52°10' E 003°37'0 0.0
2014-Sep-12 11:32N 52°10' E 003°37'0 0.0
2014-Sep-12 08:17N 52°10' E 003°37'0 0.1
2014-Sep-12 06:23N 52°10' E 003°37'0 0.1
2014-Sep-12 05:29N 52°10' E 003°37'0 0.0
2014-Sep-12 04:29N 52°10' E 003°37'0 0.1
2014-Sep-12 03:32N 52°10' E 003°37'0 0.1
2014-Sep-12 01:20N 52°10' E 003°37'0 0.0
2014-Sep-12 00:29N 52°10' E 003°37'0 0.0
2014-Sep-11 23:32N 52°10' E 003°37'0 0.0
2014-Sep-11 22:29N 52°10' E 003°37'0 0.0
2014-Sep-11 21:32N 52°10' E 003°37'0 0.0
2014-Sep-11 20:26N 52°10' E 003°37'0 0.0
2014-Sep-11 19:08N 52°10' E 003°37'6 1.0
2014-Sep-11 13:22N 52°04' E 003°39'1011.8
2014-Sep-11 12:33N 52°02' E 003°55'1110.6
2014-Sep-11 11:33N 51°57' E 004°10'0 0.5
2014-Sep-11 10:32N 51°56' E 004°10'0 0.0
2014-Sep-11 09:32N 51°56' E 004°10'0 0.0
2014-Sep-11 08:32N 51°56' E 004°10'0 0.0
2014-Sep-11 07:23N 51°56' E 004°10'0 0.0
2014-Sep-11 06:20N 51°56' E 004°10'0 0.0
2014-Sep-11 05:32N 51°56' E 004°10'0 0.0
2014-Sep-11 04:29N 51°56' E 004°10'0 0.0
2014-Sep-11 03:26N 51°56' E 004°10'0 0.0
2014-Sep-11 02:23N 51°56' E 004°10'0 0.0
2014-Sep-11 01:29N 51°56' E 004°10'0 0.0
2014-Sep-11 00:29N 51°56' E 004°10'0 0.0
2014-Sep-10 23:08N 51°56' E 004°10'0 0.0
2014-Sep-10 22:20N 51°56' E 004°10'0 0.0
2014-Sep-10 21:32N 51°56' E 004°10'0 0.0
2014-Sep-10 20:11N 51°56' E 004°10'0 0.0
2014-Sep-10 19:32N 51°56' E 004°10'0 0.0
2014-Sep-10 18:29N 51°56' E 004°10'0 0.0
2014-Sep-10 17:17N 51°56' E 004°10'0 0.0
2014-Sep-10 16:32N 51°56' E 004°10'0 0.0
2014-Sep-10 15:26N 51°56' E 004°10'0 0.0
2014-Sep-10 13:23N 51°56' E 004°10'0 0.0
2014-Sep-10 12:08N 51°56' E 004°10'0 0.0
2014-Sep-10 11:26N 51°56' E 004°10'0 0.0
2014-Sep-10 10:29N 51°56' E 004°10'0 0.0
2014-Sep-10 09:26N 51°56' E 004°10'0 0.0
2014-Sep-10 08:32N 51°56' E 004°10'0 0.0
2014-Sep-10 07:29N 51°56' E 004°10'0 0.0
2014-Sep-10 05:29N 51°56' E 004°10'1 0.6
2014-Sep-10 04:33N 51°57' E 004°09'0 0.4
2014-Sep-10 03:31N 51°57' E 004°09'0 0.0
2014-Sep-10 02:31N 51°57' E 004°09'0 0.0
2014-Sep-10 01:19N 51°57' E 004°09'0 0.0
2014-Sep-10 00:31N 51°57' E 004°09'0 0.0
2014-Sep-09 23:25N 51°57' E 004°09'0 0.0
2014-Sep-09 22:25N 51°57' E 004°09'0 0.0
2014-Sep-09 21:31N 51°57' E 004°09'0 0.0
2014-Sep-09 19:31N 51°57' E 004°09'0 0.0
2014-Sep-09 18:31N 51°57' E 004°09'0 0.0
2014-Sep-09 17:25N 51°57' E 004°09'0 0.0
2014-Sep-09 16:28N 51°57' E 004°09'0 0.0
2014-Sep-09 15:31N 51°57' E 004°09'0 0.0
2014-Sep-09 14:28N 51°57' E 004°09'0 0.0
2014-Sep-09 13:31N 51°57' E 004°09'0 0.0
2014-Sep-09 12:28N 51°57' E 004°09'0 0.0
2014-Sep-09 11:31N 51°57' E 004°09'0 0.0
2014-Sep-09 10:31N 51°57' E 004°09'0 0.0
2014-Sep-09 09:25N 51°57' E 004°09'0 0.0
2014-Sep-09 08:28N 51°57' E 004°09'0 0.0
2014-Sep-09 07:31N 51°57' E 004°09'0 0.0
2014-Sep-09 06:19N 51°57' E 004°09'0 0.0
2014-Sep-09 05:31N 51°57' E 004°09'  

Dump ship's entire track history